createdAt,value
2023-03-29T00:01:35.051Z,-0.40
2023-03-29T00:04:06.761Z,-0.50
2023-03-29T00:06:37.412Z,-0.60
2023-03-29T00:09:08.889Z,-0.70
2023-03-29T00:11:39.990Z,-0.70
2023-03-29T00:14:12.283Z,-0.70
2023-03-29T00:16:43.019Z,-0.70
2023-03-29T00:19:13.208Z,-0.90
2023-03-29T00:21:43.443Z,-1.00
2023-03-29T00:24:13.607Z,-1.00
2023-03-29T00:26:43.836Z,-1.10
2023-03-29T00:29:15.789Z,-1.10
2023-03-29T00:31:52.096Z,-1.30
2023-03-29T00:34:22.753Z,-1.40
2023-03-29T00:36:53.734Z,-1.60
2023-03-29T00:39:24.390Z,-1.80
2023-03-29T00:41:54.695Z,-2.00
2023-03-29T00:44:59.383Z,-2.20
2023-03-29T00:47:34.850Z,-2.30
2023-03-29T00:50:11.490Z,-2.40
2023-03-29T00:52:43.762Z,-2.40
2023-03-29T00:55:18.611Z,-2.50
2023-03-29T00:57:50.344Z,-2.70
2023-03-29T01:00:25.744Z,-2.80
2023-03-29T01:03:00.437Z,-2.80
2023-03-29T01:05:34.020Z,-2.80
2023-03-29T01:08:07.314Z,-2.60
2023-03-29T01:10:43.899Z,-2.50
2023-03-29T01:13:19.363Z,-2.40
2023-03-29T01:15:51.973Z,-2.30
2023-03-29T01:18:23.723Z,-2.30
2023-03-29T01:21:17.086Z,-2.30
2023-03-29T01:24:07.418Z,-2.40
2023-03-29T01:26:46.593Z,-2.60
2023-03-29T01:29:23.873Z,-2.80
2023-03-29T01:31:58.955Z,-2.90
2023-03-29T01:34:35.690Z,-3.00
2023-03-29T01:37:12.634Z,-3.20
2023-03-29T01:39:43.682Z,-3.30
2023-03-29T01:42:40.426Z,-3.40
2023-03-29T01:45:24.931Z,-3.30
2023-03-29T01:48:02.427Z,-3.30
2023-03-29T01:50:42.929Z,-3.20
2023-03-29T01:53:18.919Z,-3.10
2023-03-29T01:55:54.427Z,-3.10
2023-03-29T01:58:27.335Z,-3.10
2023-03-29T02:01:00.554Z,-3.20
2023-03-29T02:03:34.631Z,-3.20
2023-03-29T02:06:06.398Z,-3.20
2023-03-29T02:08:37.698Z,-3.30
2023-03-29T02:11:08.580Z,-3.40
2023-03-29T02:13:38.996Z,-3.50
2023-03-29T02:16:14.273Z,-3.50
2023-03-29T02:18:47.114Z,-3.70
2023-03-29T02:21:28.047Z,-3.80
2023-03-29T02:24:01.582Z,-3.90
2023-03-29T02:26:32.291Z,-4.00
2023-03-29T02:29:03.065Z,-4.00
2023-03-29T02:31:39.831Z,-4.00
2023-03-29T02:34:17.745Z,-4.00
2023-03-29T02:36:52.318Z,-4.00
2023-03-29T02:39:25.924Z,-4.00
2023-03-29T02:41:57.648Z,-4.20
2023-03-29T02:44:30.658Z,-4.30
2023-03-29T02:47:07.375Z,-4.40
2023-03-29T02:49:38.346Z,-4.50
2023-03-29T02:52:14.294Z,-4.60
2023-03-29T02:54:46.374Z,-4.70
2023-03-29T02:57:16.651Z,-4.80
2023-03-29T02:59:47.120Z,-4.70
2023-03-29T03:02:19.168Z,-4.80
2023-03-29T03:04:49.592Z,-4.70
2023-03-29T03:07:20.640Z,-4.70
2023-03-29T03:09:50.755Z,-4.50
2023-03-29T03:12:20.946Z,-4.50
2023-03-29T03:14:51.497Z,-4.60
2023-03-29T03:17:23.700Z,-4.50
2023-03-29T03:19:54.040Z,-4.60
2023-03-29T03:22:24.263Z,-4.60
2023-03-29T03:24:54.520Z,-4.50
2023-03-29T03:27:24.718Z,-4.70
2023-03-29T03:29:54.903Z,-4.70
2023-03-29T03:32:26.720Z,-4.70
2023-03-29T03:34:57.256Z,-4.60
2023-03-29T03:37:28.279Z,-4.60
2023-03-29T03:39:58.494Z,-4.60
2023-03-29T03:42:30.904Z,-4.70
2023-03-29T03:45:01.091Z,-4.80
2023-03-29T03:47:32.976Z,-4.90
2023-03-29T03:50:03.525Z,-5.00
2023-03-29T03:52:33.742Z,-5.10
2023-03-29T03:55:04.301Z,-5.10
2023-03-29T03:57:37.954Z,-5.10
2023-03-29T04:00:19.840Z,-5.20
2023-03-29T04:02:52.542Z,-5.30
2023-03-29T04:05:23.221Z,-5.30
2023-03-29T04:07:53.466Z,-5.30
2023-03-29T04:10:23.606Z,-5.30
2023-03-29T04:12:53.820Z,-5.20
2023-03-29T04:15:24.372Z,-5.10
2023-03-29T04:17:56.592Z,-5.10
2023-03-29T04:20:27.704Z,-5.00
2023-03-29T04:22:57.938Z,-5.10
2023-03-29T04:25:28.043Z,-5.20
2023-03-29T04:27:58.475Z,-5.20
2023-03-29T04:30:28.792Z,-5.20
2023-03-29T04:33:00.958Z,-5.40
2023-03-29T04:35:31.210Z,-5.50
2023-03-29T04:38:01.652Z,-5.50
2023-03-29T04:40:31.836Z,-5.60
2023-03-29T04:43:03.068Z,-5.70
2023-03-29T04:45:33.832Z,-5.70
2023-03-29T04:48:06.375Z,-5.70
2023-03-29T04:50:37.172Z,-5.80
2023-03-29T04:53:08.107Z,-5.90
2023-03-29T04:55:38.196Z,-5.90
2023-03-29T04:58:08.560Z,-5.90
2023-03-29T05:00:39.229Z,-6.00
2023-03-29T05:03:12.365Z,-5.80
2023-03-29T05:05:43.597Z,-5.60
2023-03-29T05:08:13.839Z,-5.60
2023-03-29T05:10:45.563Z,-5.70
2023-03-29T05:13:15.724Z,-5.90
2023-03-29T05:15:46.094Z,-6.00
2023-03-29T05:18:17.879Z,-5.80
2023-03-29T05:20:48.171Z,-6.00
2023-03-29T05:23:18.557Z,-6.00
2023-03-29T05:25:50.288Z,-6.00
2023-03-29T05:28:20.476Z,-6.10
2023-03-29T05:31:01.086Z,-6.10
2023-03-29T05:33:34.286Z,-6.10
2023-03-29T05:36:05.593Z,-6.10
2023-03-29T05:38:35.960Z,-6.20
2023-03-29T05:41:06.908Z,-6.10
2023-03-29T05:43:37.415Z,-6.20
2023-03-29T05:46:08.131Z,-6.20
2023-03-29T05:48:40.547Z,-6.00
2023-03-29T05:51:11.230Z,-6.00
2023-03-29T05:53:41.572Z,-6.00
2023-03-29T05:56:12.335Z,-6.00
2023-03-29T05:58:42.965Z,-5.90
2023-03-29T06:01:15.384Z,-5.90
2023-03-29T06:03:48.275Z,-5.90
2023-03-29T06:06:19.091Z,-5.90
2023-03-29T06:08:49.461Z,-5.80
2023-03-29T06:11:19.857Z,-5.70
2023-03-29T06:13:50.066Z,-5.70
2023-03-29T06:16:20.502Z,-5.60
2023-03-29T06:18:52.634Z,-5.50
2023-03-29T06:21:22.957Z,-5.40
2023-03-29T06:23:53.177Z,-5.30
2023-03-29T06:26:23.434Z,-5.30
2023-03-29T06:28:53.687Z,-5.30
2023-03-29T06:31:24.154Z,-5.30
2023-03-29T06:33:55.969Z,-5.30
2023-03-29T06:36:26.554Z,-5.40
2023-03-29T06:38:57.022Z,-5.40
2023-03-29T06:41:27.263Z,-5.50
2023-03-29T06:43:58.416Z,-5.60
2023-03-29T06:46:28.760Z,-5.70
2023-03-29T06:49:01.728Z,-5.70
2023-03-29T06:51:31.912Z,-5.90
2023-03-29T06:54:02.152Z,-5.90
2023-03-29T06:56:32.849Z,-5.80
2023-03-29T06:59:03.192Z,-5.80
2023-03-29T07:01:33.923Z,-5.80
2023-03-29T07:04:08.528Z,-5.80
2023-03-29T07:06:40.995Z,-5.80
2023-03-29T07:09:13.535Z,-5.80
2023-03-29T07:11:43.855Z,-5.80
2023-03-29T07:14:14.359Z,-5.80
2023-03-29T07:16:47.705Z,-5.80
2023-03-29T07:19:20.382Z,-5.80
2023-03-29T07:21:50.546Z,-5.80
2023-03-29T07:24:21.544Z,-5.80
2023-03-29T07:27:03.315Z,-5.80
2023-03-29T07:29:34.949Z,-6.00
2023-03-29T07:32:05.107Z,-6.00
2023-03-29T07:34:37.635Z,-6.10
2023-03-29T07:37:09.993Z,-6.10
2023-03-29T07:39:40.272Z,-6.10
2023-03-29T07:42:10.495Z,-6.10
2023-03-29T07:44:42.345Z,-6.00
2023-03-29T07:47:13.281Z,-6.10
2023-03-29T07:49:45.514Z,-6.30
2023-03-29T07:52:15.675Z,-6.40
2023-03-29T07:54:45.988Z,-6.40
2023-03-29T07:57:16.504Z,-6.30
2023-03-29T07:59:46.742Z,-6.30
2023-03-29T08:02:16.928Z,-6.30
2023-03-29T08:04:49.260Z,-6.20
2023-03-29T08:07:20.672Z,-6.20
2023-03-29T08:09:50.877Z,-6.20
2023-03-29T08:12:23.212Z,-6.10
2023-03-29T08:14:55.616Z,-6.10
2023-03-29T08:17:25.879Z,-6.10
2023-03-29T08:19:57.779Z,-6.20
2023-03-29T08:22:28.564Z,-6.20
2023-03-29T08:24:59.258Z,-6.30
2023-03-29T08:27:29.437Z,-6.30
2023-03-29T08:29:59.699Z,-6.50
2023-03-29T08:32:30.082Z,-6.50
2023-03-29T08:35:04.466Z,-6.60
2023-03-29T08:37:34.725Z,-6.60
2023-03-29T08:40:05.459Z,-6.70
2023-03-29T08:42:57.303Z,-6.80
2023-03-29T08:45:34.514Z,-6.80
2023-03-29T08:48:14.058Z,-6.80
2023-03-29T08:50:50.014Z,-7.00
2023-03-29T08:53:23.682Z,-7.10
2023-03-29T08:55:55.517Z,-7.10
2023-03-29T08:58:29.737Z,-6.90
2023-03-29T09:01:02.379Z,-6.70
2023-03-29T09:03:38.127Z,-6.60
2023-03-29T09:06:12.026Z,-6.70
2023-03-29T09:08:44.776Z,-6.70
2023-03-29T09:11:41.665Z,-6.60
2023-03-29T09:14:35.463Z,-6.70
2023-03-29T09:17:18.821Z,-6.80
2023-03-29T09:19:55.392Z,-7.00
2023-03-29T09:22:33.707Z,-7.10
2023-03-29T09:25:13.348Z,-7.10
2023-03-29T09:27:51.010Z,-7.20
2023-03-29T09:30:27.222Z,-7.00
2023-03-29T09:33:00.296Z,-7.00
2023-03-29T09:35:35.738Z,-6.90
2023-03-29T09:38:11.615Z,-6.90
2023-03-29T09:40:44.986Z,-6.90
2023-03-29T09:43:19.233Z,-7.00
2023-03-29T09:45:55.054Z,-7.10
2023-03-29T09:48:27.811Z,-7.00
2023-03-29T09:50:59.175Z,-7.00
2023-03-29T09:53:31.242Z,-7.00
2023-03-29T09:56:03.646Z,-7.00
2023-03-29T09:58:34.463Z,-7.10
2023-03-29T10:01:09.383Z,-7.10
2023-03-29T10:03:39.840Z,-7.20
2023-03-29T10:06:12.561Z,-7.20
2023-03-29T10:08:48.620Z,-7.20
2023-03-29T10:11:25.500Z,-7.20
2023-03-29T10:13:58.125Z,-7.20
2023-03-29T10:16:32.818Z,-7.30
2023-03-29T10:19:19.154Z,-7.40
2023-03-29T10:21:51.309Z,-7.40
2023-03-29T10:24:28.828Z,-7.50
2023-03-29T10:27:02.404Z,-7.50
2023-03-29T10:29:39.701Z,-7.60
2023-03-29T10:32:18.109Z,-7.70
2023-03-29T10:34:50.032Z,-7.80
2023-03-29T10:37:21.745Z,-7.80
2023-03-29T10:39:54.415Z,-7.80
2023-03-29T10:42:27.952Z,-7.70
2023-03-29T10:44:59.796Z,-7.80
2023-03-29T10:47:35.821Z,-7.80
2023-03-29T10:50:10.540Z,-7.80
2023-03-29T10:52:43.260Z,-7.70
2023-03-29T10:55:17.578Z,-7.60
2023-03-29T10:57:56.930Z,-7.50
2023-03-29T11:00:33.833Z,-7.30
2023-03-29T11:03:25.846Z,-7.20
2023-03-29T11:06:01.817Z,-7.00
2023-03-29T11:08:48.618Z,-6.90
2023-03-29T11:11:41.861Z,-6.80
2023-03-29T11:14:19.550Z,-6.70
2023-03-29T11:17:01.136Z,-6.60
2023-03-29T11:19:58.289Z,-6.60
2023-03-29T11:22:43.597Z,-6.60
2023-03-29T11:25:27.869Z,-6.60
2023-03-29T11:28:08.214Z,-6.60
2023-03-29T11:30:44.930Z,-6.50
2023-03-29T11:33:31.501Z,-6.50
2023-03-29T11:36:11.778Z,-6.50
2023-03-29T11:38:51.064Z,-6.40
2023-03-29T11:41:25.258Z,-6.40
2023-03-29T11:44:01.500Z,-6.40
2023-03-29T11:46:35.221Z,-6.30
2023-03-29T11:49:09.586Z,-6.20
2023-03-29T11:51:44.240Z,-6.10
2023-03-29T11:54:20.799Z,-6.00
2023-03-29T11:56:54.560Z,-5.90
2023-03-29T11:59:32.550Z,-5.60
2023-03-29T12:02:07.963Z,-5.40
2023-03-29T12:04:45.350Z,-5.20
2023-03-29T12:07:19.537Z,-5.00
2023-03-29T12:09:54.211Z,-4.60
2023-03-29T12:12:29.393Z,-4.30
2023-03-29T12:15:09.839Z,-3.90
2023-03-29T12:17:44.718Z,-3.40
2023-03-29T12:20:21.838Z,-2.90
2023-03-29T12:22:53.664Z,-2.60
2023-03-29T12:25:29.663Z,-2.20
2023-03-29T12:28:20.127Z,-1.90
2023-03-29T12:31:08.122Z,-1.50
2023-03-29T12:34:17.623Z,-1.30
2023-03-29T12:37:20.164Z,-1.20
2023-03-29T12:39:50.973Z,-1.10
2023-03-29T12:42:23.715Z,-0.90
2023-03-29T12:45:00.554Z,-0.80
2023-03-29T12:47:43.185Z,-0.70
2023-03-29T12:50:25.880Z,-0.60
2023-03-29T12:52:56.333Z,-0.60
2023-03-29T12:55:34.879Z,-0.50
2023-03-29T12:58:09.732Z,-0.20
2023-03-29T13:00:47.648Z,0.20
2023-03-29T13:03:32.150Z,0.40
2023-03-29T13:06:04.432Z,0.70
2023-03-29T13:08:39.066Z,1.00
2023-03-29T13:11:14.237Z,1.40
2023-03-29T13:13:45.872Z,1.70
2023-03-29T13:16:18.373Z,1.70
2023-03-29T13:19:07.216Z,1.90
2023-03-29T13:21:47.555Z,2.10
2023-03-29T13:24:38.817Z,2.30
2023-03-29T13:27:18.825Z,2.30
2023-03-29T13:30:09.895Z,2.20
2023-03-29T13:32:52.341Z,2.20
2023-03-29T13:35:38.472Z,2.20
2023-03-29T13:38:18.238Z,2.10
2023-03-29T13:41:01.076Z,2.00
2023-03-29T13:43:37.277Z,2.00
2023-03-29T13:46:23.294Z,2.10
2023-03-29T13:49:04.729Z,2.10
2023-03-29T13:51:42.666Z,2.20
2023-03-29T13:54:30.371Z,2.30
2023-03-29T13:57:06.279Z,2.60
2023-03-29T13:59:47.086Z,3.00
2023-03-29T14:02:28.147Z,3.20
2023-03-29T14:05:00.540Z,3.30
2023-03-29T14:07:34.564Z,3.60
2023-03-29T14:10:05.135Z,3.80
2023-03-29T14:12:41.662Z,4.10
2023-03-29T14:15:23.288Z,4.20
2023-03-29T14:18:00.359Z,4.30
2023-03-29T14:20:33.634Z,4.50
2023-03-29T14:23:15.643Z,4.50
2023-03-29T14:25:46.498Z,4.60
2023-03-29T14:28:23.497Z,4.80
2023-03-29T14:30:54.873Z,4.80
2023-03-29T14:33:29.854Z,4.80
2023-03-29T14:36:03.197Z,4.80
2023-03-29T14:38:38.140Z,5.00
2023-03-29T14:41:09.220Z,5.20
2023-03-29T14:43:40.049Z,5.30
2023-03-29T14:46:11.120Z,5.50
2023-03-29T14:48:41.977Z,5.60
2023-03-29T14:51:12.967Z,5.90
2023-03-29T14:53:45.289Z,6.10
2023-03-29T14:56:18.907Z,5.90
2023-03-29T14:58:49.452Z,6.00
2023-03-29T15:01:22.317Z,5.90
2023-03-29T15:03:55.398Z,5.90
2023-03-29T15:06:26.824Z,6.00
2023-03-29T15:09:06.095Z,6.10
2023-03-29T15:11:37.539Z,6.20
2023-03-29T15:14:09.886Z,6.30
2023-03-29T15:16:43.000Z,6.40
2023-03-29T15:19:19.425Z,6.30
2023-03-29T15:21:52.358Z,6.30
2023-03-29T15:24:30.429Z,6.30
2023-03-29T15:27:06.146Z,6.40
2023-03-29T15:29:43.045Z,6.60
2023-03-29T15:32:23.240Z,6.80
2023-03-29T15:35:01.754Z,7.00
2023-03-29T15:37:32.175Z,7.20
2023-03-29T15:40:10.510Z,7.40
2023-03-29T15:42:40.751Z,7.60
2023-03-29T15:45:18.809Z,7.70
2023-03-29T15:47:49.336Z,7.80
2023-03-29T15:50:20.449Z,8.00
2023-03-29T15:53:12.637Z,8.20
2023-03-29T15:55:52.420Z,8.20
2023-03-29T15:58:25.715Z,8.50
2023-03-29T16:01:01.109Z,8.60
2023-03-29T16:03:31.296Z,8.60
2023-03-29T16:06:02.119Z,8.50
2023-03-29T16:08:32.504Z,8.60
2023-03-29T16:11:05.707Z,8.50
2023-03-29T16:13:35.951Z,8.80
2023-03-29T16:16:06.734Z,8.70
2023-03-29T16:18:37.227Z,8.80
2023-03-29T16:21:09.298Z,8.80
2023-03-29T16:23:41.518Z,8.90
2023-03-29T16:26:15.442Z,8.90
2023-03-29T16:28:45.976Z,8.70
2023-03-29T16:31:17.041Z,8.90
2023-03-29T16:33:47.216Z,8.80
2023-03-29T16:36:17.547Z,9.00
2023-03-29T16:38:48.125Z,9.00
2023-03-29T16:41:20.653Z,9.00
2023-03-29T16:43:50.806Z,9.10
2023-03-29T16:46:21.704Z,9.40
2023-03-29T16:48:54.058Z,9.70
2023-03-29T16:51:24.529Z,9.70
2023-03-29T16:53:54.691Z,9.70
2023-03-29T16:56:28.386Z,9.50
2023-03-29T16:58:58.588Z,9.90
2023-03-29T17:01:29.941Z,10.30
2023-03-29T17:04:07.221Z,10.40
2023-03-29T17:06:37.580Z,10.70
2023-03-29T17:09:08.137Z,10.70
2023-03-29T17:11:40.325Z,10.70
2023-03-29T17:14:10.772Z,10.40
2023-03-29T17:16:41.120Z,10.10
2023-03-29T17:19:11.396Z,10.10
2023-03-29T17:21:41.755Z,9.70
2023-03-29T17:24:12.307Z,9.60
2023-03-29T17:26:45.801Z,9.50
2023-03-29T17:29:16.158Z,9.40
2023-03-29T17:31:48.958Z,9.40
2023-03-29T17:34:21.148Z,9.20
2023-03-29T17:36:53.927Z,9.30
2023-03-29T17:39:25.740Z,9.40
2023-03-29T17:41:58.038Z,9.20
2023-03-29T17:44:29.931Z,9.00
2023-03-29T17:47:00.184Z,9.20
2023-03-29T17:49:31.420Z,9.40
2023-03-29T17:52:01.806Z,9.70
2023-03-29T17:54:32.070Z,10.40
2023-03-29T17:57:05.030Z,10.60
2023-03-29T17:59:35.224Z,10.50
2023-03-29T18:02:06.194Z,10.30
2023-03-29T18:04:36.624Z,10.20
2023-03-29T18:07:06.848Z,10.10
2023-03-29T18:09:37.042Z,9.90
2023-03-29T18:12:09.236Z,9.60
2023-03-29T18:14:39.800Z,9.60
2023-03-29T18:17:10.070Z,9.60
2023-03-29T18:19:40.341Z,9.40
2023-03-29T18:22:10.598Z,9.20
2023-03-29T18:24:40.939Z,9.00
2023-03-29T18:27:12.936Z,8.90
2023-03-29T18:29:44.539Z,9.00
2023-03-29T18:32:16.036Z,9.00
2023-03-29T18:34:46.395Z,9.20
2023-03-29T18:37:18.130Z,9.20
2023-03-29T18:39:48.597Z,9.30
2023-03-29T18:42:22.533Z,9.20
2023-03-29T18:44:52.950Z,9.30
2023-03-29T18:47:23.140Z,9.50
2023-03-29T18:49:53.435Z,10.00
2023-03-29T18:52:23.996Z,10.50
2023-03-29T18:54:54.124Z,11.10
2023-03-29T18:57:26.055Z,11.40
2023-03-29T18:59:56.728Z,11.20
2023-03-29T19:02:27.100Z,10.90
2023-03-29T19:04:57.296Z,10.80
2023-03-29T19:07:27.503Z,10.60
2023-03-29T19:09:57.926Z,10.60
2023-03-29T19:12:29.770Z,10.50
2023-03-29T19:14:59.901Z,10.30
2023-03-29T19:17:30.838Z,9.90
2023-03-29T19:20:01.039Z,9.90
2023-03-29T19:22:33.081Z,10.30
2023-03-29T19:25:03.282Z,10.10
2023-03-29T19:27:35.670Z,9.90
2023-03-29T19:30:06.485Z,9.70
2023-03-29T19:32:36.871Z,9.60
2023-03-29T19:35:07.672Z,9.90
2023-03-29T19:37:37.858Z,10.20
2023-03-29T19:40:11.483Z,10.30
2023-03-29T19:42:43.519Z,10.60
2023-03-29T19:45:14.005Z,10.80
2023-03-29T19:47:47.982Z,11.50
2023-03-29T19:50:19.638Z,11.90
2023-03-29T19:52:50.005Z,11.70
2023-03-29T19:55:20.405Z,11.60
2023-03-29T19:57:52.237Z,11.50
2023-03-29T20:00:25.790Z,11.30
2023-03-29T20:03:28.981Z,11.10
2023-03-29T20:05:59.532Z,10.80
2023-03-29T20:08:29.772Z,10.30
2023-03-29T20:11:00.852Z,9.80
2023-03-29T20:13:38.679Z,9.80
2023-03-29T20:16:10.853Z,9.90
2023-03-29T20:18:41.331Z,9.90
2023-03-29T20:21:14.554Z,9.70
2023-03-29T20:23:45.156Z,9.30
2023-03-29T20:26:16.206Z,9.00
2023-03-29T20:28:47.989Z,8.60
2023-03-29T20:31:18.651Z,8.20
2023-03-29T20:33:48.868Z,8.00
2023-03-29T20:36:23.646Z,7.90
2023-03-29T20:38:56.113Z,7.80
2023-03-29T20:41:26.361Z,7.70
2023-03-29T20:44:00.498Z,7.70
2023-03-29T20:46:35.440Z,7.70
2023-03-29T20:49:08.580Z,7.60
2023-03-29T20:51:39.806Z,7.60
2023-03-29T20:54:10.671Z,7.60
2023-03-29T20:56:42.879Z,7.60
2023-03-29T20:59:14.684Z,7.50
2023-03-29T21:01:44.909Z,7.40
2023-03-29T21:04:15.550Z,7.40
2023-03-29T21:06:46.706Z,7.50
2023-03-29T21:09:17.192Z,7.50
2023-03-29T21:11:47.550Z,7.60
2023-03-29T21:14:21.729Z,7.60
2023-03-29T21:16:52.391Z,7.60
2023-03-29T21:19:23.276Z,7.60
2023-03-29T21:21:56.092Z,7.60
2023-03-29T21:24:26.299Z,7.60
2023-03-29T21:26:56.665Z,7.50
2023-03-29T21:29:28.776Z,7.50
2023-03-29T21:31:59.531Z,7.50
2023-03-29T21:34:29.726Z,7.40
2023-03-29T21:37:00.056Z,7.40
2023-03-29T21:39:31.115Z,7.40
2023-03-29T21:42:02.199Z,7.30
2023-03-29T21:44:34.561Z,7.20
2023-03-29T21:47:04.844Z,7.20
2023-03-29T21:49:41.238Z,7.20
2023-03-29T21:52:12.681Z,7.10
2023-03-29T21:54:42.890Z,7.00
2023-03-29T21:57:13.142Z,6.90
2023-03-29T21:59:45.027Z,6.80
2023-03-29T22:02:15.276Z,6.80
2023-03-29T22:04:46.189Z,6.40
2023-03-29T22:07:17.050Z,5.90
2023-03-29T22:09:47.982Z,5.40
2023-03-29T22:12:19.292Z,5.10
2023-03-29T22:14:51.345Z,4.80
2023-03-29T22:17:21.693Z,4.70
2023-03-29T22:19:52.280Z,4.50
2023-03-29T22:22:22.615Z,4.40
2023-03-29T22:24:55.423Z,4.30
2023-03-29T22:27:25.921Z,4.30
2023-03-29T22:29:59.236Z,4.20
2023-03-29T22:32:31.741Z,4.20
2023-03-29T22:35:01.994Z,4.20
2023-03-29T22:37:32.183Z,4.10
2023-03-29T22:40:02.490Z,4.10
2023-03-29T22:42:32.896Z,3.90
2023-03-29T22:45:04.994Z,3.80
2023-03-29T22:47:36.010Z,3.70
2023-03-29T22:50:06.969Z,3.50
2023-03-29T22:52:37.187Z,3.40
2023-03-29T22:55:08.165Z,3.30
2023-03-29T22:57:38.415Z,3.20
2023-03-29T23:00:11.755Z,3.00
2023-03-29T23:02:42.024Z,2.80
2023-03-29T23:05:12.732Z,2.70
2023-03-29T23:07:43.164Z,2.50
2023-03-29T23:10:14.176Z,2.40
2023-03-29T23:12:44.839Z,2.10
2023-03-29T23:15:17.653Z,1.80
2023-03-29T23:17:47.885Z,1.60
2023-03-29T23:20:18.416Z,1.40
2023-03-29T23:22:48.553Z,1.30
2023-03-29T23:25:18.847Z,1.10
2023-03-29T23:27:49.014Z,0.90
2023-03-29T23:30:21.165Z,0.70
2023-03-29T23:32:53.007Z,0.70
2023-03-29T23:35:23.809Z,0.60
2023-03-29T23:37:54.839Z,0.60
2023-03-29T23:40:25.120Z,0.60
2023-03-29T23:42:59.962Z,0.60
2023-03-29T23:45:32.446Z,0.50
2023-03-29T23:48:03.207Z,0.40
2023-03-29T23:50:33.915Z,0.40
2023-03-29T23:53:04.112Z,0.40
2023-03-29T23:55:34.382Z,0.40
2023-03-29T23:58:04.576Z,0.30
